sensor_id;sensor_type;location;lat;lon;timestamp;P1;durP1;ratioP1;P2;durP2;ratioP2
56752;SDS011;42627;42.646;23.642;2023-04-01T00:00:58;9.35;;;3.72;;
56752;SDS011;42627;42.646;23.642;2023-04-01T00:03:00;7.40;;;3.78;;
56752;SDS011;42627;42.646;23.642;2023-04-01T00:05:01;8.50;;;4.10;;
56752;SDS011;42627;42.646;23.642;2023-04-01T00:07:02;8.00;;;3.63;;
56752;SDS011;42627;42.646;23.642;2023-04-01T00:09:03;6.85;;;3.60;;
56752;SDS011;42627;42.646;23.642;2023-04-01T00:11:04;8.38;;;3.50;;
56752;SDS011;42627;42.646;23.642;2023-04-01T00:13:05;6.30;;;3.13;;
56752;SDS011;42627;42.646;23.642;2023-04-01T00:15:07;9.00;;;4.30;;
56752;SDS011;42627;42.646;23.642;2023-04-01T00:17:09;7.53;;;4.25;;
56752;SDS011;42627;42.646;23.642;2023-04-01T00:19:10;8.15;;;3.75;;
56752;SDS011;42627;42.646;23.642;2023-04-01T00:21:11;6.00;;;2.92;;
56752;SDS011;42627;42.646;23.642;2023-04-01T00:23:12;7.47;;;3.33;;
56752;SDS011;42627;42.646;23.642;2023-04-01T00:25:13;9.98;;;3.40;;
56752;SDS011;42627;42.646;23.642;2023-04-01T00:27:15;7.75;;;3.85;;
56752;SDS011;42627;42.646;23.642;2023-04-01T00:29:16;8.32;;;3.33;;
56752;SDS011;42627;42.646;23.642;2023-04-01T00:31:17;9.60;;;4.55;;
56752;SDS011;42627;42.646;23.642;2023-04-01T00:33:18;8.75;;;4.13;;
56752;SDS011;42627;42.646;23.642;2023-04-01T00:35:20;7.15;;;4.10;;
56752;SDS011;42627;42.646;23.642;2023-04-01T00:37:22;9.40;;;4.30;;
56752;SDS011;42627;42.646;23.642;2023-04-01T00:39:23;7.63;;;3.72;;
56752;SDS011;42627;42.646;23.642;2023-04-01T00:41:24;8.73;;;3.20;;
56752;SDS011;42627;42.646;23.642;2023-04-01T00:43:26;6.88;;;3.22;;
56752;SDS011;42627;42.646;23.642;2023-04-01T00:45:45;5.43;;;2.85;;
56752;SDS011;42627;42.646;23.642;2023-04-01T00:47:46;5.72;;;2.88;;
56752;SDS011;42627;42.646;23.642;2023-04-01T00:49:48;10.07;;;4.88;;
56752;SDS011;42627;42.646;23.642;2023-04-01T00:51:51;12.98;;;5.93;;
56752;SDS011;42627;42.646;23.642;2023-04-01T00:53:53;21.63;;;6.40;;
56752;SDS011;42627;42.646;23.642;2023-04-01T00:56:02;15.77;;;5.93;;
56752;SDS011;42627;42.646;23.642;2023-04-01T00:58:05;9.80;;;4.25;;
56752;SDS011;42627;42.646;23.642;2023-04-01T01:00:09;13.20;;;4.20;;
56752;SDS011;42627;42.646;23.642;2023-04-01T01:02:11;8.60;;;4.22;;
56752;SDS011;42627;42.646;23.642;2023-04-01T01:04:23;8.55;;;3.42;;
56752;SDS011;42627;42.646;23.642;2023-04-01T01:08:33;12.32;;;4.05;;
56752;SDS011;42627;42.646;23.642;2023-04-01T01:10:38;11.13;;;4.65;;
56752;SDS011;42627;42.646;23.642;2023-04-01T01:12:40;11.32;;;4.72;;
56752;SDS011;42627;42.646;23.642;2023-04-01T01:16:48;8.27;;;3.50;;
56752;SDS011;42627;42.646;23.642;2023-04-01T01:21:20;5.65;;;2.60;;
56752;SDS011;42627;42.646;23.642;2023-04-01T01:27:39;11.13;;;2.53;;
56752;SDS011;42627;42.646;23.642;2023-04-01T01:34:22;4.03;;;2.13;;
56752;SDS011;42627;42.646;23.642;2023-04-01T01:36:32;7.53;;;2.65;;
56752;SDS011;42627;42.646;23.642;2023-04-01T01:38:37;6.63;;;2.30;;
56752;SDS011;42627;42.646;23.642;2023-04-01T01:40:39;8.27;;;2.45;;
56752;SDS011;42627;42.646;23.642;2023-04-01T01:42:43;5.65;;;2.65;;
56752;SDS011;42627;42.646;23.642;2023-04-01T01:44:46;5.57;;;2.53;;
56752;SDS011;42627;42.646;23.642;2023-04-01T01:46:49;4.95;;;2.88;;
56752;SDS011;42627;42.646;23.642;2023-04-01T01:48:50;10.32;;;2.83;;
56752;SDS011;42627;42.646;23.642;2023-04-01T01:50:52;4.43;;;2.00;;
56752;SDS011;42627;42.646;23.642;2023-04-01T01:53:03;5.85;;;2.35;;
56752;SDS011;42627;42.646;23.642;2023-04-01T01:57:26;4.78;;;2.20;;
56752;SDS011;42627;42.646;23.642;2023-04-01T01:59:28;10.02;;;3.60;;
56752;SDS011;42627;42.646;23.642;2023-04-01T02:01:31;4.75;;;2.90;;
56752;SDS011;42627;42.646;23.642;2023-04-01T02:03:34;26.17;;;14.50;;
56752;SDS011;42627;42.646;23.642;2023-04-01T02:05:36;5.13;;;2.58;;
56752;SDS011;42627;42.646;23.642;2023-04-01T02:07:37;5.97;;;2.58;;
56752;SDS011;42627;42.646;23.642;2023-04-01T02:09:40;4.82;;;2.25;;
56752;SDS011;42627;42.646;23.642;2023-04-01T02:11:57;4.43;;;2.00;;
56752;SDS011;42627;42.646;23.642;2023-04-01T02:16:05;5.22;;;2.55;;
56752;SDS011;42627;42.646;23.642;2023-04-01T02:18:07;8.85;;;2.80;;
56752;SDS011;42627;42.646;23.642;2023-04-01T02:20:09;9.40;;;3.10;;
56752;SDS011;42627;42.646;23.642;2023-04-01T02:22:13;5.78;;;3.20;;
56752;SDS011;42627;42.646;23.642;2023-04-01T02:24:15;21.52;;;9.15;;
56752;SDS011;42627;42.646;23.642;2023-04-01T02:26:16;9.35;;;3.15;;
56752;SDS011;42627;42.646;23.642;2023-04-01T02:28:18;8.23;;;3.75;;
56752;SDS011;42627;42.646;23.642;2023-04-01T02:30:20;4.72;;;1.98;;
56752;SDS011;42627;42.646;23.642;2023-04-01T02:32:21;5.60;;;2.63;;
56752;SDS011;42627;42.646;23.642;2023-04-01T02:34:23;7.35;;;2.28;;
56752;SDS011;42627;42.646;23.642;2023-04-01T02:36:24;6.45;;;2.83;;
56752;SDS011;42627;42.646;23.642;2023-04-01T02:38:26;6.03;;;2.95;;
56752;SDS011;42627;42.646;23.642;2023-04-01T02:40:27;5.10;;;2.33;;
56752;SDS011;42627;42.646;23.642;2023-04-01T02:42:28;6.47;;;2.50;;
56752;SDS011;42627;42.646;23.642;2023-04-01T02:44:29;4.00;;;2.03;;
56752;SDS011;42627;42.646;23.642;2023-04-01T02:46:30;5.95;;;1.95;;
56752;SDS011;42627;42.646;23.642;2023-04-01T02:48:31;5.78;;;2.05;;
56752;SDS011;42627;42.646;23.642;2023-04-01T02:50:32;5.82;;;2.20;;
56752;SDS011;42627;42.646;23.642;2023-04-01T02:52:33;6.35;;;2.85;;
56752;SDS011;42627;42.646;23.642;2023-04-01T02:54:34;5.10;;;2.30;;
56752;SDS011;42627;42.646;23.642;2023-04-01T02:56:35;6.30;;;2.67;;
56752;SDS011;42627;42.646;23.642;2023-04-01T02:58:36;8.93;;;3.90;;
56752;SDS011;42627;42.646;23.642;2023-04-01T03:00:37;11.40;;;5.22;;
56752;SDS011;42627;42.646;23.642;2023-04-01T03:02:38;10.63;;;4.55;;
56752;SDS011;42627;42.646;23.642;2023-04-01T03:04:39;14.18;;;4.70;;
56752;SDS011;42627;42.646;23.642;2023-04-01T03:06:40;10.23;;;4.97;;
56752;SDS011;42627;42.646;23.642;2023-04-01T03:08:42;14.68;;;6.63;;
56752;SDS011;42627;42.646;23.642;2023-04-01T03:10:43;17.98;;;8.13;;
56752;SDS011;42627;42.646;23.642;2023-04-01T03:12:44;16.45;;;7.20;;
56752;SDS011;42627;42.646;23.642;2023-04-01T03:14:45;12.93;;;6.85;;
56752;SDS011;42627;42.646;23.642;2023-04-01T03:16:46;11.45;;;5.28;;
56752;SDS011;42627;42.646;23.642;2023-04-01T03:18:47;7.97;;;4.13;;
56752;SDS011;42627;42.646;23.642;2023-04-01T03:20:50;6.75;;;3.28;;
56752;SDS011;42627;42.646;23.642;2023-04-01T03:22:51;8.13;;;4.68;;
56752;SDS011;42627;42.646;23.642;2023-04-01T03:24:52;9.35;;;4.18;;
56752;SDS011;42627;42.646;23.642;2023-04-01T03:26:53;7.88;;;3.83;;
56752;SDS011;42627;42.646;23.642;2023-04-01T03:28:55;7.57;;;4.03;;
56752;SDS011;42627;42.646;23.642;2023-04-01T03:30:56;9.23;;;4.13;;
56752;SDS011;42627;42.646;23.642;2023-04-01T03:32:57;8.60;;;4.72;;
56752;SDS011;42627;42.646;23.642;2023-04-01T03:35:00;11.13;;;4.72;;
56752;SDS011;42627;42.646;23.642;2023-04-01T03:37:00;12.68;;;5.07;;
56752;SDS011;42627;42.646;23.642;2023-04-01T03:39:02;16.38;;;5.90;;
56752;SDS011;42627;42.646;23.642;2023-04-01T03:41:03;13.43;;;5.28;;
56752;SDS011;42627;42.646;23.642;2023-04-01T03:43:05;9.82;;;5.22;;
56752;SDS011;42627;42.646;23.642;2023-04-01T03:45:08;9.32;;;4.53;;
56752;SDS011;42627;42.646;23.642;2023-04-01T03:47:09;6.57;;;3.05;;
56752;SDS011;42627;42.646;23.642;2023-04-01T03:49:10;6.05;;;3.25;;
56752;SDS011;42627;42.646;23.642;2023-04-01T03:51:11;9.27;;;3.47;;
56752;SDS011;42627;42.646;23.642;2023-04-01T03:53:12;8.90;;;3.78;;
56752;SDS011;42627;42.646;23.642;2023-04-01T03:55:13;6.13;;;2.78;;
56752;SDS011;42627;42.646;23.642;2023-04-01T03:57:15;5.50;;;2.72;;
56752;SDS011;42627;42.646;23.642;2023-04-01T03:59:16;11.25;;;3.28;;
56752;SDS011;42627;42.646;23.642;2023-04-01T04:01:18;8.57;;;3.55;;
56752;SDS011;42627;42.646;23.642;2023-04-01T04:03:20;7.82;;;3.10;;
56752;SDS011;42627;42.646;23.642;2023-04-01T04:05:22;7.97;;;3.42;;
56752;SDS011;42627;42.646;23.642;2023-04-01T04:07:23;6.13;;;3.03;;
56752;SDS011;42627;42.646;23.642;2023-04-01T04:09:24;8.55;;;3.33;;
56752;SDS011;42627;42.646;23.642;2023-04-01T04:11:25;7.32;;;3.03;;
56752;SDS011;42627;42.646;23.642;2023-04-01T04:13:26;6.90;;;3.65;;
56752;SDS011;42627;42.646;23.642;2023-04-01T04:15:27;10.63;;;3.75;;
56752;SDS011;42627;42.646;23.642;2023-04-01T04:17:28;7.95;;;3.70;;
56752;SDS011;42627;42.646;23.642;2023-04-01T04:19:31;6.15;;;3.47;;
56752;SDS011;42627;42.646;23.642;2023-04-01T04:21:33;12.85;;;5.00;;
56752;SDS011;42627;42.646;23.642;2023-04-01T04:23:34;12.07;;;6.18;;
56752;SDS011;42627;42.646;23.642;2023-04-01T04:25:37;11.27;;;5.25;;
56752;SDS011;42627;42.646;23.642;2023-04-01T04:27:38;7.68;;;4.05;;
56752;SDS011;42627;42.646;23.642;2023-04-01T04:29:39;12.88;;;5.03;;
56752;SDS011;42627;42.646;23.642;2023-04-01T04:31:40;23.38;;;8.88;;
56752;SDS011;42627;42.646;23.642;2023-04-01T04:33:41;30.30;;;10.82;;
56752;SDS011;42627;42.646;23.642;2023-04-01T04:35:42;14.38;;;5.57;;
56752;SDS011;42627;42.646;23.642;2023-04-01T04:37:43;8.68;;;3.67;;
56752;SDS011;42627;42.646;23.642;2023-04-01T04:39:44;7.90;;;3.55;;
56752;SDS011;42627;42.646;23.642;2023-04-01T04:41:45;6.57;;;3.90;;
56752;SDS011;42627;42.646;23.642;2023-04-01T04:43:50;10.68;;;4.13;;
56752;SDS011;42627;42.646;23.642;2023-04-01T04:45:51;10.02;;;3.10;;
56752;SDS011;42627;42.646;23.642;2023-04-01T04:47:52;10.60;;;4.05;;
56752;SDS011;42627;42.646;23.642;2023-04-01T04:49:53;7.88;;;4.20;;
56752;SDS011;42627;42.646;23.642;2023-04-01T04:51:54;9.93;;;3.70;;
56752;SDS011;42627;42.646;23.642;2023-04-01T04:53:55;5.60;;;3.05;;
56752;SDS011;42627;42.646;23.642;2023-04-01T04:55:56;6.75;;;3.63;;
56752;SDS011;42627;42.646;23.642;2023-04-01T04:57:57;19.88;;;9.77;;
56752;SDS011;42627;42.646;23.642;2023-04-01T04:59:59;14.73;;;6.93;;
56752;SDS011;42627;42.646;23.642;2023-04-01T05:02:00;9.00;;;4.15;;
56752;SDS011;42627;42.646;23.642;2023-04-01T05:04:01;14.88;;;5.85;;
56752;SDS011;42627;42.646;23.642;2023-04-01T05:06:15;10.57;;;5.03;;
56752;SDS011;42627;42.646;23.642;2023-04-01T05:08:25;20.33;;;9.25;;
56752;SDS011;42627;42.646;23.642;2023-04-01T05:10:26;17.52;;;7.00;;
56752;SDS011;42627;42.646;23.642;2023-04-01T05:12:27;12.32;;;6.35;;
56752;SDS011;42627;42.646;23.642;2023-04-01T05:14:28;14.23;;;6.60;;
56752;SDS011;42627;42.646;23.642;2023-04-01T05:16:29;15.13;;;7.90;;
56752;SDS011;42627;42.646;23.642;2023-04-01T05:18:31;15.00;;;5.85;;
56752;SDS011;42627;42.646;23.642;2023-04-01T05:20:32;10.38;;;5.85;;
56752;SDS011;42627;42.646;23.642;2023-04-01T05:22:42;9.82;;;3.55;;
56752;SDS011;42627;42.646;23.642;2023-04-01T05:24:43;7.57;;;2.88;;
56752;SDS011;42627;42.646;23.642;2023-04-01T05:26:44;7.00;;;3.25;;
56752;SDS011;42627;42.646;23.642;2023-04-01T05:28:45;7.53;;;4.00;;
56752;SDS011;42627;42.646;23.642;2023-04-01T05:30:46;6.70;;;3.22;;
56752;SDS011;42627;42.646;23.642;2023-04-01T05:32:47;5.20;;;3.28;;
56752;SDS011;42627;42.646;23.642;2023-04-01T05:34:51;7.13;;;3.10;;
56752;SDS011;42627;42.646;23.642;2023-04-01T05:36:52;6.18;;;3.28;;
56752;SDS011;42627;42.646;23.642;2023-04-01T05:38:56;12.10;;;4.47;;
56752;SDS011;42627;42.646;23.642;2023-04-01T05:41:00;12.27;;;7.15;;
56752;SDS011;42627;42.646;23.642;2023-04-01T05:43:02;20.33;;;7.80;;
56752;SDS011;42627;42.646;23.642;2023-04-01T05:45:11;14.90;;;7.40;;
56752;SDS011;42627;42.646;23.642;2023-04-01T05:47:15;27.52;;;11.57;;
56752;SDS011;42627;42.646;23.642;2023-04-01T05:49:16;21.63;;;9.95;;
56752;SDS011;42627;42.646;23.642;2023-04-01T05:51:17;19.27;;;8.18;;
56752;SDS011;42627;42.646;23.642;2023-04-01T05:53:18;15.32;;;7.32;;
56752;SDS011;42627;42.646;23.642;2023-04-01T05:55:19;18.02;;;6.82;;
56752;SDS011;42627;42.646;23.642;2023-04-01T05:57:20;14.90;;;7.40;;
56752;SDS011;42627;42.646;23.642;2023-04-01T05:59:21;10.75;;;4.75;;
56752;SDS011;42627;42.646;23.642;2023-04-01T06:01:22;10.77;;;4.05;;
56752;SDS011;42627;42.646;23.642;2023-04-01T06:03:23;16.88;;;5.95;;
56752;SDS011;42627;42.646;23.642;2023-04-01T06:05:25;9.55;;;4.90;;
56752;SDS011;42627;42.646;23.642;2023-04-01T06:07:27;11.80;;;5.95;;
56752;SDS011;42627;42.646;23.642;2023-04-01T06:09:29;11.00;;;6.43;;
56752;SDS011;42627;42.646;23.642;2023-04-01T06:11:46;14.73;;;6.13;;
56752;SDS011;42627;42.646;23.642;2023-04-01T06:18:53;4.38;;;1.92;;
56752;SDS011;42627;42.646;23.642;2023-04-01T06:21:01;6.00;;;1.65;;
56752;SDS011;42627;42.646;23.642;2023-04-01T06:25:29;3.00;;;1.50;;
56752;SDS011;42627;42.646;23.642;2023-04-01T06:29:45;5.57;;;1.73;;
56752;SDS011;42627;42.646;23.642;2023-04-01T06:42:48;8.23;;;2.90;;
56752;SDS011;42627;42.646;23.642;2023-04-01T06:46:57;4.80;;;1.88;;
56752;SDS011;42627;42.646;23.642;2023-04-01T06:55:24;5.28;;;2.28;;
56752;SDS011;42627;42.646;23.642;2023-04-01T06:57:39;5.43;;;2.25;;
56752;SDS011;42627;42.646;23.642;2023-04-01T06:59:42;10.18;;;2.08;;
56752;SDS011;42627;42.646;23.642;2023-04-01T07:04:26;7.47;;;2.67;;
56752;SDS011;42627;42.646;23.642;2023-04-01T07:06:31;6.05;;;3.10;;
56752;SDS011;42627;42.646;23.642;2023-04-01T07:08:34;6.38;;;2.60;;
56752;SDS011;42627;42.646;23.642;2023-04-01T07:12:48;3.72;;;2.25;;
56752;SDS011;42627;42.646;23.642;2023-04-01T07:14:50;11.77;;;2.40;;
56752;SDS011;42627;42.646;23.642;2023-04-01T07:16:56;7.43;;;4.25;;
56752;SDS011;42627;42.646;23.642;2023-04-01T07:19:05;10.10;;;3.55;;
56752;SDS011;42627;42.646;23.642;2023-04-01T07:21:09;4.57;;;2.47;;
56752;SDS011;42627;42.646;23.642;2023-04-01T07:23:15;7.13;;;2.47;;
56752;SDS011;42627;42.646;23.642;2023-04-01T07:27:30;5.10;;;2.58;;
56752;SDS011;42627;42.646;23.642;2023-04-01T07:29:31;4.68;;;2.67;;
56752;SDS011;42627;42.646;23.642;2023-04-01T07:35:55;6.38;;;2.88;;
56752;SDS011;42627;42.646;23.642;2023-04-01T07:38:03;6.50;;;3.83;;
56752;SDS011;42627;42.646;23.642;2023-04-01T07:49:02;10.27;;;4.78;;
56752;SDS011;42627;42.646;23.642;2023-04-01T07:53:22;5.68;;;3.03;;
56752;SDS011;42627;42.646;23.642;2023-04-01T07:55:28;6.88;;;2.67;;
56752;SDS011;42627;42.646;23.642;2023-04-01T07:57:35;5.63;;;2.70;;
56752;SDS011;42627;42.646;23.642;2023-04-01T08:09:00;5.22;;;2.75;;
56752;SDS011;42627;42.646;23.642;2023-04-01T08:10:53;7.28;;;4.05;;
56752;SDS011;42627;42.646;23.642;2023-04-01T08:17:02;7.20;;;3.40;;
56752;SDS011;42627;42.646;23.642;2023-04-01T08:21:23;12.50;;;5.70;;
56752;SDS011;42627;42.646;23.642;2023-04-01T08:23:27;10.38;;;4.50;;
56752;SDS011;42627;42.646;23.642;2023-04-01T08:25:28;8.20;;;3.65;;
56752;SDS011;42627;42.646;23.642;2023-04-01T08:27:37;7.57;;;3.60;;
56752;SDS011;42627;42.646;23.642;2023-04-01T08:29:41;6.15;;;2.97;;
56752;SDS011;42627;42.646;23.642;2023-04-01T08:31:51;3.10;;;2.00;;
56752;SDS011;42627;42.646;23.642;2023-04-01T08:33:56;5.88;;;2.03;;
56752;SDS011;42627;42.646;23.642;2023-04-01T08:36:17;6.07;;;2.60;;
56752;SDS011;42627;42.646;23.642;2023-04-01T08:42:46;6.22;;;2.10;;
56752;SDS011;42627;42.646;23.642;2023-04-01T08:48:59;8.75;;;2.30;;
56752;SDS011;42627;42.646;23.642;2023-04-01T09:00:12;5.43;;;2.80;;
56752;SDS011;42627;42.646;23.642;2023-04-01T09:04:58;3.17;;;1.80;;
56752;SDS011;42627;42.646;23.642;2023-04-01T09:07:14;3.20;;;1.77;;
56752;SDS011;42627;42.646;23.642;2023-04-01T09:11:59;3.53;;;1.48;;
56752;SDS011;42627;42.646;23.642;2023-04-01T09:16:11;5.78;;;1.80;;
56752;SDS011;42627;42.646;23.642;2023-04-01T09:28:44;2.95;;;1.35;;
56752;SDS011;42627;42.646;23.642;2023-04-01T09:30:54;4.78;;;1.83;;
56752;SDS011;42627;42.646;23.642;2023-04-01T09:33:09;3.33;;;1.30;;
56752;SDS011;42627;42.646;23.642;2023-04-01T09:35:37;5.30;;;1.63;;
56752;SDS011;42627;42.646;23.642;2023-04-01T09:37:53;4.18;;;1.40;;
56752;SDS011;42627;42.646;23.642;2023-04-01T09:45:14;3.10;;;1.40;;
56752;SDS011;42627;42.646;23.642;2023-04-01T09:47:01;7.68;;;1.65;;
56752;SDS011;42627;42.646;23.642;2023-04-01T09:53:32;2.97;;;1.40;;
56752;SDS011;42627;42.646;23.642;2023-04-01T10:06:32;3.53;;;1.95;;
56752;SDS011;42627;42.646;23.642;2023-04-01T10:08:45;5.95;;;1.80;;
56752;SDS011;42627;42.646;23.642;2023-04-01T10:13:04;4.95;;;1.80;;
56752;SDS011;42627;42.646;23.642;2023-04-01T10:31:24;5.78;;;1.52;;
56752;SDS011;42627;42.646;23.642;2023-04-01T10:51:25;2.90;;;1.40;;
56752;SDS011;42627;42.646;23.642;2023-04-01T11:12:06;5.05;;;1.60;;
56752;SDS011;42627;42.646;23.642;2023-04-01T11:21:07;5.07;;;1.73;;
56752;SDS011;42627;42.646;23.642;2023-04-01T11:23:22;3.78;;;1.50;;
56752;SDS011;42627;42.646;23.642;2023-04-01T11:43:12;4.20;;;2.35;;
56752;SDS011;42627;42.646;23.642;2023-04-01T11:47:24;8.27;;;3.78;;
56752;SDS011;42627;42.646;23.642;2023-04-01T11:53:57;4.95;;;2.38;;
56752;SDS011;42627;42.646;23.642;2023-04-01T12:07:18;7.07;;;3.13;;
56752;SDS011;42627;42.646;23.642;2023-04-01T12:11:56;3.58;;;1.42;;
56752;SDS011;42627;42.646;23.642;2023-04-01T12:20:57;5.30;;;1.95;;
56752;SDS011;42627;42.646;23.642;2023-04-01T12:25:14;11.32;;;4.53;;
56752;SDS011;42627;42.646;23.642;2023-04-01T12:27:26;11.65;;;4.22;;
56752;SDS011;42627;42.646;23.642;2023-04-01T12:36:08;14.70;;;5.22;;
56752;SDS011;42627;42.646;23.642;2023-04-01T12:38:19;14.63;;;5.50;;
56752;SDS011;42627;42.646;23.642;2023-04-01T12:40:31;9.98;;;4.03;;
56752;SDS011;42627;42.646;23.642;2023-04-01T12:49:47;9.90;;;3.47;;
56752;SDS011;42627;42.646;23.642;2023-04-01T12:56:07;6.80;;;2.97;;
56752;SDS011;42627;42.646;23.642;2023-04-01T13:00:42;8.57;;;3.85;;
56752;SDS011;42627;42.646;23.642;2023-04-01T13:07:13;5.97;;;2.25;;
56752;SDS011;42627;42.646;23.642;2023-04-01T13:09:30;8.82;;;3.15;;
56752;SDS011;42627;42.646;23.642;2023-04-01T13:14:12;7.30;;;2.63;;
56752;SDS011;42627;42.646;23.642;2023-04-01T13:16:19;7.47;;;2.95;;
56752;SDS011;42627;42.646;23.642;2023-04-01T13:22:51;9.20;;;2.65;;
56752;SDS011;42627;42.646;23.642;2023-04-01T13:27:18;8.82;;;3.63;;
56752;SDS011;42627;42.646;23.642;2023-04-01T13:34:16;9.38;;;4.97;;
56752;SDS011;42627;42.646;23.642;2023-04-01T13:42:59;12.70;;;6.13;;
56752;SDS011;42627;42.646;23.642;2023-04-01T13:45:16;6.60;;;3.25;;
56752;SDS011;42627;42.646;23.642;2023-04-01T13:51:57;9.32;;;3.88;;
56752;SDS011;42627;42.646;23.642;2023-04-01T14:06:05;8.55;;;3.70;;
56752;SDS011;42627;42.646;23.642;2023-04-01T14:39:08;4.18;;;1.58;;
56752;SDS011;42627;42.646;23.642;2023-04-01T14:41:21;6.60;;;1.40;;
56752;SDS011;42627;42.646;23.642;2023-04-01T14:47:58;7.25;;;2.05;;
56752;SDS011;42627;42.646;23.642;2023-04-01T14:50:05;5.35;;;1.70;;
56752;SDS011;42627;42.646;23.642;2023-04-01T14:52:11;3.67;;;1.67;;
56752;SDS011;42627;42.646;23.642;2023-04-01T14:54:19;5.03;;;1.75;;
56752;SDS011;42627;42.646;23.642;2023-04-01T15:10:24;8.55;;;4.88;;
56752;SDS011;42627;42.646;23.642;2023-04-01T15:12:47;9.13;;;3.80;;
56752;SDS011;42627;42.646;23.642;2023-04-01T15:14:57;6.70;;;3.40;;
56752;SDS011;42627;42.646;23.642;2023-04-01T15:33:36;2.78;;;1.27;;
56752;SDS011;42627;42.646;23.642;2023-04-01T15:40:24;3.58;;;1.77;;
56752;SDS011;42627;42.646;23.642;2023-04-01T15:42:50;2.92;;;1.80;;
56752;SDS011;42627;42.646;23.642;2023-04-01T15:47:19;2.10;;;0.90;;
56752;SDS011;42627;42.646;23.642;2023-04-01T15:49:32;1.30;;;0.90;;
56752;SDS011;42627;42.646;23.642;2023-04-01T15:55:57;8.85;;;4.63;;
56752;SDS011;42627;42.646;23.642;2023-04-01T16:00:53;11.23;;;6.82;;
56752;SDS011;42627;42.646;23.642;2023-04-01T16:03:09;21.58;;;9.13;;
56752;SDS011;42627;42.646;23.642;2023-04-01T16:11:33;11.13;;;5.50;;
56752;SDS011;42627;42.646;23.642;2023-04-01T16:13:49;13.07;;;5.50;;
56752;SDS011;42627;42.646;23.642;2023-04-01T16:20:22;2.45;;;0.95;;
56752;SDS011;42627;42.646;23.642;2023-04-01T16:24:45;7.13;;;1.38;;
56752;SDS011;42627;42.646;23.642;2023-04-01T16:27:05;7.40;;;2.40;;
56752;SDS011;42627;42.646;23.642;2023-04-01T16:36:22;13.02;;;4.50;;
56752;SDS011;42627;42.646;23.642;2023-04-01T16:38:26;7.03;;;2.28;;
56752;SDS011;42627;42.646;23.642;2023-04-01T16:40:47;33.88;;;12.60;;
56752;SDS011;42627;42.646;23.642;2023-04-01T16:42:51;25.77;;;9.70;;
56752;SDS011;42627;42.646;23.642;2023-04-01T16:47:09;9.10;;;3.40;;
56752;SDS011;42627;42.646;23.642;2023-04-01T16:49:32;10.90;;;4.53;;
56752;SDS011;42627;42.646;23.642;2023-04-01T16:51:47;5.05;;;2.47;;
56752;SDS011;42627;42.646;23.642;2023-04-01T16:53:49;10.55;;;3.85;;
56752;SDS011;42627;42.646;23.642;2023-04-01T16:57:57;8.00;;;3.38;;
56752;SDS011;42627;42.646;23.642;2023-04-01T17:00:23;12.82;;;4.90;;
56752;SDS011;42627;42.646;23.642;2023-04-01T17:02:47;12.17;;;4.50;;
56752;SDS011;42627;42.646;23.642;2023-04-01T17:04:58;17.88;;;7.20;;
56752;SDS011;42627;42.646;23.642;2023-04-01T17:11:32;9.65;;;4.25;;
56752;SDS011;42627;42.646;23.642;2023-04-01T17:18:02;10.32;;;4.95;;
56752;SDS011;42627;42.646;23.642;2023-04-01T17:20:20;8.90;;;4.00;;
56752;SDS011;42627;42.646;23.642;2023-04-01T17:24:50;5.57;;;2.70;;
56752;SDS011;42627;42.646;23.642;2023-04-01T17:27:04;6.55;;;3.45;;
56752;SDS011;42627;42.646;23.642;2023-04-01T17:31:33;4.65;;;2.25;;
56752;SDS011;42627;42.646;23.642;2023-04-01T17:36:32;3.85;;;2.00;;
56752;SDS011;42627;42.646;23.642;2023-04-01T17:41:04;9.30;;;3.20;;
56752;SDS011;42627;42.646;23.642;2023-04-01T17:45:20;10.35;;;3.80;;
56752;SDS011;42627;42.646;23.642;2023-04-01T17:53:53;4.50;;;2.47;;
56752;SDS011;42627;42.646;23.642;2023-04-01T17:58:39;10.80;;;4.13;;
56752;SDS011;42627;42.646;23.642;2023-04-01T18:00:30;6.57;;;3.25;;
56752;SDS011;42627;42.646;23.642;2023-04-01T18:18:56;5.07;;;2.65;;
56752;SDS011;42627;42.646;23.642;2023-04-01T18:25:33;7.65;;;3.33;;
56752;SDS011;42627;42.646;23.642;2023-04-01T18:27:37;7.28;;;3.47;;
56752;SDS011;42627;42.646;23.642;2023-04-01T18:31:54;7.45;;;2.90;;
56752;SDS011;42627;42.646;23.642;2023-04-01T18:34:06;5.30;;;2.72;;
56752;SDS011;42627;42.646;23.642;2023-04-01T18:38:35;8.82;;;4.30;;
56752;SDS011;42627;42.646;23.642;2023-04-01T18:43:02;8.20;;;3.35;;
56752;SDS011;42627;42.646;23.642;2023-04-01T19:06:06;5.13;;;3.28;;
56752;SDS011;42627;42.646;23.642;2023-04-01T19:08:24;4.97;;;2.67;;
56752;SDS011;42627;42.646;23.642;2023-04-01T19:21:07;6.63;;;3.20;;
56752;SDS011;42627;42.646;23.642;2023-04-01T19:25:31;5.22;;;2.83;;
56752;SDS011;42627;42.646;23.642;2023-04-01T19:27:39;4.05;;;2.20;;
56752;SDS011;42627;42.646;23.642;2023-04-01T19:32:37;4.40;;;2.58;;
56752;SDS011;42627;42.646;23.642;2023-04-01T19:36:52;4.15;;;2.42;;
56752;SDS011;42627;42.646;23.642;2023-04-01T19:39:41;4.28;;;2.78;;
56752;SDS011;42627;42.646;23.642;2023-04-01T19:47:41;3.10;;;1.80;;
56752;SDS011;42627;42.646;23.642;2023-04-01T19:51:57;3.70;;;2.00;;
56752;SDS011;42627;42.646;23.642;2023-04-01T20:00:25;3.78;;;2.03;;
56752;SDS011;42627;42.646;23.642;2023-04-01T20:07:00;5.03;;;2.00;;
56752;SDS011;42627;42.646;23.642;2023-04-01T20:09:09;4.20;;;2.13;;
56752;SDS011;42627;42.646;23.642;2023-04-01T20:15:33;4.97;;;2.58;;
56752;SDS011;42627;42.646;23.642;2023-04-01T20:17:42;4.97;;;2.33;;
56752;SDS011;42627;42.646;23.642;2023-04-01T20:19:45;4.00;;;2.20;;
56752;SDS011;42627;42.646;23.642;2023-04-01T20:21:50;5.55;;;2.72;;
56752;SDS011;42627;42.646;23.642;2023-04-01T20:23:54;3.03;;;1.85;;
56752;SDS011;42627;42.646;23.642;2023-04-01T20:26:04;5.97;;;2.80;;
56752;SDS011;42627;42.646;23.642;2023-04-01T20:35:29;3.93;;;2.17;;
56752;SDS011;42627;42.646;23.642;2023-04-01T20:37:37;4.00;;;2.38;;
56752;SDS011;42627;42.646;23.642;2023-04-01T20:44:01;5.18;;;2.45;;
56752;SDS011;42627;42.646;23.642;2023-04-01T20:46:07;5.03;;;2.97;;
56752;SDS011;42627;42.646;23.642;2023-04-01T20:48:34;6.53;;;2.85;;
56752;SDS011;42627;42.646;23.642;2023-04-01T20:50:48;5.07;;;2.75;;
56752;SDS011;42627;42.646;23.642;2023-04-01T20:53:01;5.55;;;2.80;;
56752;SDS011;42627;42.646;23.642;2023-04-01T20:57:44;5.03;;;2.75;;
56752;SDS011;42627;42.646;23.642;2023-04-01T21:01:43;6.03;;;2.65;;
56752;SDS011;42627;42.646;23.642;2023-04-01T21:04:07;6.22;;;2.42;;
56752;SDS011;42627;42.646;23.642;2023-04-01T21:12:47;6.68;;;2.75;;
56752;SDS011;42627;42.646;23.642;2023-04-01T21:14:56;2.67;;;1.70;;
56752;SDS011;42627;42.646;23.642;2023-04-01T21:34:55;2.85;;;1.60;;
56752;SDS011;42627;42.646;23.642;2023-04-01T21:41:43;4.95;;;2.35;;
56752;SDS011;42627;42.646;23.642;2023-04-01T21:57:49;4.88;;;2.47;;
56752;SDS011;42627;42.646;23.642;2023-04-01T22:04:38;8.63;;;3.35;;
56752;SDS011;42627;42.646;23.642;2023-04-01T22:07:03;4.97;;;2.50;;
56752;SDS011;42627;42.646;23.642;2023-04-01T22:09:11;3.17;;;1.80;;
56752;SDS011;42627;42.646;23.642;2023-04-01T22:11:22;3.33;;;1.55;;
56752;SDS011;42627;42.646;23.642;2023-04-01T22:13:28;5.22;;;2.30;;
56752;SDS011;42627;42.646;23.642;2023-04-01T22:15:51;3.65;;;2.15;;
56752;SDS011;42627;42.646;23.642;2023-04-01T22:17:59;3.28;;;1.48;;
56752;SDS011;42627;42.646;23.642;2023-04-01T22:25:05;5.20;;;1.92;;
56752;SDS011;42627;42.646;23.642;2023-04-01T22:33:48;5.63;;;2.28;;
56752;SDS011;42627;42.646;23.642;2023-04-01T22:42:29;4.55;;;2.10;;